sensor_id;sensor_type;location;lat;lon;timestamp;temperature;humidity
16253;DHT22;8234;41.480;2.306;2022-09-09T00:03:49;23.60;99.90
16253;DHT22;8234;41.480;2.306;2022-09-09T00:13:57;23.80;99.90
16253;DHT22;8234;41.480;2.306;2022-09-09T00:24:11;23.80;99.90
16253;DHT22;8234;41.480;2.306;2022-09-09T00:34:18;23.70;99.90
16253;DHT22;8234;41.480;2.306;2022-09-09T00:44:30;23.80;99.90
16253;DHT22;8234;41.480;2.306;2022-09-09T00:54:44;23.80;99.90
16253;DHT22;8234;41.480;2.306;2022-09-09T01:04:50;23.50;99.90
16253;DHT22;8234;41.480;2.306;2022-09-09T01:15:00;23.30;99.90
16253;DHT22;8234;41.480;2.306;2022-09-09T01:25:26;23.40;99.90
16253;DHT22;8234;41.480;2.306;2022-09-09T01:35:39;23.30;99.90
16253;DHT22;8234;41.480;2.306;2022-09-09T01:45:47;23.20;99.90
16253;DHT22;8234;41.480;2.306;2022-09-09T01:56:03;23.10;99.90
16253;DHT22;8234;41.480;2.306;2022-09-09T02:06:14;23.00;99.90
16253;DHT22;8234;41.480;2.306;2022-09-09T02:16:28;22.90;99.90
16253;DHT22;8234;41.480;2.306;2022-09-09T02:26:36;22.80;99.90
16253;DHT22;8234;41.480;2.306;2022-09-09T02:36:43;22.50;99.90
16253;DHT22;8234;41.480;2.306;2022-09-09T02:47:05;22.30;99.90
16253;DHT22;8234;41.480;2.306;2022-09-09T02:57:19;22.10;99.90
16253;DHT22;8234;41.480;2.306;2022-09-09T03:07:24;22.10;99.90
16253;DHT22;8234;41.480;2.306;2022-09-09T03:17:31;22.30;99.90
16253;DHT22;8234;41.480;2.306;2022-09-09T03:27:34;22.70;99.90
16253;DHT22;8234;41.480;2.306;2022-09-09T03:37:40;22.80;99.90
16253;DHT22;8234;41.480;2.306;2022-09-09T03:47:44;23.00;99.90
16253;DHT22;8234;41.480;2.306;2022-09-09T03:57:49;22.70;99.90
16253;DHT22;8234;41.480;2.306;2022-09-09T04:07:53;22.50;99.90
16253;DHT22;8234;41.480;2.306;2022-09-09T04:17:58;22.60;99.90
16253;DHT22;8234;41.480;2.306;2022-09-09T04:28:03;22.70;99.90
16253;DHT22;8234;41.480;2.306;2022-09-09T04:38:08;22.70;99.90
16253;DHT22;8234;41.480;2.306;2022-09-09T04:48:11;22.70;99.90
16253;DHT22;8234;41.480;2.306;2022-09-09T04:58:17;22.60;99.90
16253;DHT22;8234;41.480;2.306;2022-09-09T05:08:21;22.60;99.90
16253;DHT22;8234;41.480;2.306;2022-09-09T05:18:26;22.60;99.90
16253;DHT22;8234;41.480;2.306;2022-09-09T05:28:30;22.60;99.90
16253;DHT22;8234;41.480;2.306;2022-09-09T05:38:36;22.60;99.90
16253;DHT22;8234;41.480;2.306;2022-09-09T05:48:41;22.80;99.90
16253;DHT22;8234;41.480;2.306;2022-09-09T05:58:46;22.90;99.90
16253;DHT22;8234;41.480;2.306;2022-09-09T06:08:53;22.80;99.90
16253;DHT22;8234;41.480;2.306;2022-09-09T06:18:59;22.80;99.90
16253;DHT22;8234;41.480;2.306;2022-09-09T06:29:03;22.80;99.90
16253;DHT22;8234;41.480;2.306;2022-09-09T06:39:09;23.20;99.90
16253;DHT22;8234;41.480;2.306;2022-09-09T06:49:16;23.50;99.90
16253;DHT22;8234;41.480;2.306;2022-09-09T06:59:21;23.80;99.90
16253;DHT22;8234;41.480;2.306;2022-09-09T07:09:25;24.30;99.90
16253;DHT22;8234;41.480;2.306;2022-09-09T07:19:31;25.10;99.90
16253;DHT22;8234;41.480;2.306;2022-09-09T07:29:36;25.80;99.90
16253;DHT22;8234;41.480;2.306;2022-09-09T07:39:41;26.40;99.90
16253;DHT22;8234;41.480;2.306;2022-09-09T07:49:45;26.40;99.90
16253;DHT22;8234;41.480;2.306;2022-09-09T07:59:53;26.10;99.90
16253;DHT22;8234;41.480;2.306;2022-09-09T08:09:58;26.00;99.90
16253;DHT22;8234;41.480;2.306;2022-09-09T08:20:04;26.40;99.90
16253;DHT22;8234;41.480;2.306;2022-09-09T08:30:10;26.80;99.90
16253;DHT22;8234;41.480;2.306;2022-09-09T08:40:23;27.20;99.90
16253;DHT22;8234;41.480;2.306;2022-09-09T08:50:32;26.90;99.90
16253;DHT22;8234;41.480;2.306;2022-09-09T09:00:45;27.00;99.90
16253;DHT22;8234;41.480;2.306;2022-09-09T09:10:54;27.30;99.90
16253;DHT22;8234;41.480;2.306;2022-09-09T09:21:05;27.40;99.90
16253;DHT22;8234;41.480;2.306;2022-09-09T09:31:13;27.10;99.90
16253;DHT22;8234;41.480;2.306;2022-09-09T09:41:29;27.30;99.90
16253;DHT22;8234;41.480;2.306;2022-09-09T09:51:33;27.70;99.90
16253;DHT22;8234;41.480;2.306;2022-09-09T10:01:40;27.90;99.90
16253;DHT22;8234;41.480;2.306;2022-09-09T10:11:51;27.40;99.90
16253;DHT22;8234;41.480;2.306;2022-09-09T10:22:22;28.20;99.90
16253;DHT22;8234;41.480;2.306;2022-09-09T10:32:40;28.40;99.90
16253;DHT22;8234;41.480;2.306;2022-09-09T10:42:46;28.90;99.90
16253;DHT22;8234;41.480;2.306;2022-09-09T10:52:59;29.40;99.90
16253;DHT22;8234;41.480;2.306;2022-09-09T11:03:05;29.70;99.90
16253;DHT22;8234;41.480;2.306;2022-09-09T11:13:14;30.00;99.90
16253;DHT22;8234;41.480;2.306;2022-09-09T11:23:24;30.00;99.90
16253;DHT22;8234;41.480;2.306;2022-09-09T11:33:55;30.20;99.90
16253;DHT22;8234;41.480;2.306;2022-09-09T11:44:10;29.80;99.90
16253;DHT22;8234;41.480;2.306;2022-09-09T11:54:28;28.80;99.90
16253;DHT22;8234;41.480;2.306;2022-09-09T12:04:36;28.70;99.90
16253;DHT22;8234;41.480;2.306;2022-09-09T12:14:54;27.80;99.90
16253;DHT22;8234;41.480;2.306;2022-09-09T12:25:06;28.10;99.90
16253;DHT22;8234;41.480;2.306;2022-09-09T12:35:20;29.20;99.90
16253;DHT22;8234;41.480;2.306;2022-09-09T12:45:29;29.20;99.90
16253;DHT22;8234;41.480;2.306;2022-09-09T12:55:37;30.40;99.90
16253;DHT22;8234;41.480;2.306;2022-09-09T13:05:43;30.90;99.90
16253;DHT22;8234;41.480;2.306;2022-09-09T13:15:51;32.20;99.90
16253;DHT22;8234;41.480;2.306;2022-09-09T13:25:58;31.30;99.90
16253;DHT22;8234;41.480;2.306;2022-09-09T13:36:04;31.10;99.90
16253;DHT22;8234;41.480;2.306;2022-09-09T13:46:26;30.50;99.90
16253;DHT22;8234;41.480;2.306;2022-09-09T13:56:32;30.80;99.90
16253;DHT22;8234;41.480;2.306;2022-09-09T14:06:39;29.50;99.90
16253;DHT22;8234;41.480;2.306;2022-09-09T14:16:43;30.30;99.90
16253;DHT22;8234;41.480;2.306;2022-09-09T14:26:49;30.60;99.90
16253;DHT22;8234;41.480;2.306;2022-09-09T14:36:54;29.30;99.90
16253;DHT22;8234;41.480;2.306;2022-09-09T14:47:00;27.60;99.90
16253;DHT22;8234;41.480;2.306;2022-09-09T14:57:03;26.90;99.90
16253;DHT22;8234;41.480;2.306;2022-09-09T15:07:09;26.60;99.90
16253;DHT22;8234;41.480;2.306;2022-09-09T15:17:13;27.30;99.90
16253;DHT22;8234;41.480;2.306;2022-09-09T15:27:18;27.70;99.90
16253;DHT22;8234;41.480;2.306;2022-09-09T15:37:22;27.30;99.90
16253;DHT22;8234;41.480;2.306;2022-09-09T15:47:27;27.00;99.90
16253;DHT22;8234;41.480;2.306;2022-09-09T15:57:31;26.90;99.90
16253;DHT22;8234;41.480;2.306;2022-09-09T16:07:36;26.60;99.90
16253;DHT22;8234;41.480;2.306;2022-09-09T16:17:40;26.90;99.90
16253;DHT22;8234;41.480;2.306;2022-09-09T16:27:46;26.90;99.90
16253;DHT22;8234;41.480;2.306;2022-09-09T16:37:49;26.90;99.90
16253;DHT22;8234;41.480;2.306;2022-09-09T16:47:55;27.10;99.90
16253;DHT22;8234;41.480;2.306;2022-09-09T16:57:59;26.80;99.90
16253;DHT22;8234;41.480;2.306;2022-09-09T17:08:04;26.40;99.90
16253;DHT22;8234;41.480;2.306;2022-09-09T17:18:08;26.50;99.90
16253;DHT22;8234;41.480;2.306;2022-09-09T17:28:14;26.50;99.90
16253;DHT22;8234;41.480;2.306;2022-09-09T17:38:18;26.70;99.90
16253;DHT22;8234;41.480;2.306;2022-09-09T17:48:30;26.20;99.90
16253;DHT22;8234;41.480;2.306;2022-09-09T17:58:34;26.00;99.90
16253;DHT22;8234;41.480;2.306;2022-09-09T18:08:39;26.00;99.90
16253;DHT22;8234;41.480;2.306;2022-09-09T18:18:43;25.60;99.90
16253;DHT22;8234;41.480;2.306;2022-09-09T18:28:51;25.60;99.90
16253;DHT22;8234;41.480;2.306;2022-09-09T18:38:56;25.20;99.90
16253;DHT22;8234;41.480;2.306;2022-09-09T18:49:02;25.20;99.90
16253;DHT22;8234;41.480;2.306;2022-09-09T18:59:09;25.20;99.90
16253;DHT22;8234;41.480;2.306;2022-09-09T19:09:16;25.20;99.90
16253;DHT22;8234;41.480;2.306;2022-09-09T19:19:22;25.40;99.90
16253;DHT22;8234;41.480;2.306;2022-09-09T19:29:30;25.30;99.90
16253;DHT22;8234;41.480;2.306;2022-09-09T19:39:34;25.30;99.90
16253;DHT22;8234;41.480;2.306;2022-09-09T19:49:39;25.10;99.90
16253;DHT22;8234;41.480;2.306;2022-09-09T19:59:48;25.00;99.90
16253;DHT22;8234;41.480;2.306;2022-09-09T20:09:53;24.70;99.90
16253;DHT22;8234;41.480;2.306;2022-09-09T20:19:57;24.60;99.90
16253;DHT22;8234;41.480;2.306;2022-09-09T20:30:03;24.50;99.90
16253;DHT22;8234;41.480;2.306;2022-09-09T20:40:08;24.50;99.90
16253;DHT22;8234;41.480;2.306;2022-09-09T20:50:13;24.40;99.90
16253;DHT22;8234;41.480;2.306;2022-09-09T21:00:18;24.30;99.90
16253;DHT22;8234;41.480;2.306;2022-09-09T21:10:23;24.20;99.90
16253;DHT22;8234;41.480;2.306;2022-09-09T21:20:27;23.90;99.90
16253;DHT22;8234;41.480;2.306;2022-09-09T21:30:33;23.90;99.90
16253;DHT22;8234;41.480;2.306;2022-09-09T21:40:44;23.70;99.90
16253;DHT22;8234;41.480;2.306;2022-09-09T21:50:49;23.30;99.90
16253;DHT22;8234;41.480;2.306;2022-09-09T22:00:53;23.00;99.90
16253;DHT22;8234;41.480;2.306;2022-09-09T22:11:05;22.70;99.90
16253;DHT22;8234;41.480;2.306;2022-09-09T22:21:11;22.50;99.90
16253;DHT22;8234;41.480;2.306;2022-09-09T22:31:17;22.30;99.90
16253;DHT22;8234;41.480;2.306;2022-09-09T22:41:22;22.10;99.90
16253;DHT22;8234;41.480;2.306;2022-09-09T22:51:27;22.00;99.90
16253;DHT22;8234;41.480;2.306;2022-09-09T23:01:32;21.80;99.90
16253;DHT22;8234;41.480;2.306;2022-09-09T23:11:38;21.60;99.90
16253;DHT22;8234;41.480;2.306;2022-09-09T23:21:44;21.60;99.90
16253;DHT22;8234;41.480;2.306;2022-09-09T23:31:50;21.70;99.90
16253;DHT22;8234;41.480;2.306;2022-09-09T23:41:54;22.00;99.90
16253;DHT22;8234;41.480;2.306;2022-09-09T23:51:59;22.20;99.90
